createdAt,value
2023-10-02T00:01:07.781Z,100.00
2023-10-02T00:03:36.278Z,100.00
2023-10-02T00:06:03.928Z,100.00
2023-10-02T00:08:37.902Z,100.00
2023-10-02T00:11:32.128Z,100.00
2023-10-02T00:14:19.326Z,100.00
2023-10-02T00:17:07.993Z,100.00
2023-10-02T00:20:15.158Z,100.00
2023-10-02T00:22:45.435Z,100.00
2023-10-02T00:25:28.765Z,100.00
2023-10-02T00:27:56.427Z,100.00
2023-10-02T00:30:31.891Z,100.00
2023-10-02T00:32:59.879Z,100.00
2023-10-02T00:35:29.174Z,100.00
2023-10-02T00:37:56.908Z,100.00
2023-10-02T00:40:31.663Z,100.00
2023-10-02T00:43:01.498Z,100.00
2023-10-02T00:45:31.321Z,100.00
2023-10-02T00:48:21.314Z,100.00
2023-10-02T00:50:51.172Z,100.00
2023-10-02T00:53:39.169Z,100.00
2023-10-02T00:56:25.849Z,100.00
2023-10-02T00:59:16.476Z,100.00
2023-10-02T01:01:43.832Z,100.00
2023-10-02T01:04:12.383Z,100.00
2023-10-02T01:07:06.947Z,100.00
2023-10-02T01:09:38.029Z,100.00
2023-10-02T01:12:07.106Z,100.00
2023-10-02T01:14:52.284Z,100.00
2023-10-02T01:17:22.683Z,100.00
2023-10-02T01:19:55.050Z,100.00
2023-10-02T01:22:29.560Z,100.00
2023-10-02T01:25:14.632Z,100.00
2023-10-02T01:27:43.773Z,100.00
2023-10-02T01:30:18.095Z,100.00
2023-10-02T01:33:18.874Z,100.00
2023-10-02T01:36:07.148Z,100.00
2023-10-02T01:38:36.398Z,100.00
2023-10-02T01:41:05.748Z,100.00
2023-10-02T01:43:50.788Z,100.00
2023-10-02T01:46:23.816Z,100.00
2023-10-02T01:48:52.249Z,100.00
2023-10-02T01:51:22.043Z,100.00
2023-10-02T01:53:53.163Z,100.00
2023-10-02T01:56:21.318Z,100.00
2023-10-02T01:58:52.543Z,100.00
2023-10-02T02:01:22.155Z,100.00
2023-10-02T02:03:51.332Z,100.00
2023-10-02T02:06:24.259Z,100.00
2023-10-02T02:09:00.123Z,100.00
2023-10-02T02:11:31.009Z,100.00
2023-10-02T02:14:05.103Z,100.00
2023-10-02T02:16:35.584Z,100.00
2023-10-02T02:19:09.396Z,100.00
2023-10-02T02:21:37.170Z,100.00
2023-10-02T02:24:12.976Z,100.00
2023-10-02T02:26:41.169Z,100.00
2023-10-02T02:29:25.546Z,100.00
2023-10-02T02:31:56.742Z,100.00
2023-10-02T02:34:25.169Z,100.00
2023-10-02T02:36:52.614Z,100.00
2023-10-02T02:39:23.737Z,100.00
2023-10-02T02:42:11.142Z,100.00
2023-10-02T02:44:42.222Z,100.00
2023-10-02T02:47:10.795Z,100.00
2023-10-02T02:49:58.712Z,100.00
2023-10-02T02:52:33.899Z,100.00
2023-10-02T02:55:14.211Z,100.00
2023-10-02T02:57:47.037Z,100.00
2023-10-02T03:00:33.673Z,100.00
2023-10-02T03:03:02.576Z,100.00
2023-10-02T03:05:39.686Z,100.00
2023-10-02T03:08:06.934Z,100.00
2023-10-02T03:10:42.000Z,100.00
2023-10-02T03:13:17.096Z,100.00
2023-10-02T03:15:48.416Z,100.00
2023-10-02T03:18:32.613Z,100.00
2023-10-02T03:21:15.699Z,100.00
2023-10-02T03:23:44.757Z,100.00
2023-10-02T03:26:23.333Z,100.00
2023-10-02T03:29:02.121Z,100.00
2023-10-02T03:31:45.352Z,100.00
2023-10-02T03:34:35.729Z,100.00
2023-10-02T03:37:13.431Z,100.00
2023-10-02T03:39:54.442Z,100.00
2023-10-02T03:42:24.307Z,100.00
2023-10-02T03:44:57.568Z,100.00
2023-10-02T03:47:26.520Z,100.00
2023-10-02T03:50:01.924Z,100.00
2023-10-02T03:52:31.889Z,100.00
2023-10-02T03:55:04.162Z,100.00
2023-10-02T03:57:50.890Z,100.00
2023-10-02T04:00:20.273Z,100.00
2023-10-02T04:02:49.908Z,100.00
2023-10-02T04:05:31.694Z,100.00
2023-10-02T04:08:14.578Z,100.00
2023-10-02T04:10:53.165Z,100.00
2023-10-02T04:13:24.538Z,100.00
2023-10-02T04:15:55.259Z,100.00
2023-10-02T04:18:41.877Z,100.00
2023-10-02T04:21:13.665Z,100.00
2023-10-02T04:23:42.309Z,100.00
2023-10-02T04:26:23.091Z,100.00
2023-10-02T04:28:59.761Z,100.00
2023-10-02T04:31:32.202Z,100.00
2023-10-02T04:34:28.778Z,100.00
2023-10-02T04:36:56.190Z,100.00
2023-10-02T04:39:32.447Z,100.00
2023-10-02T04:42:14.021Z,100.00
2023-10-02T04:44:49.029Z,100.00
2023-10-02T04:47:20.741Z,100.00
2023-10-02T04:50:08.916Z,100.00
2023-10-02T04:53:04.808Z,100.00
2023-10-02T04:55:45.312Z,100.00
2023-10-02T04:58:15.937Z,100.00
2023-10-02T05:01:05.465Z,100.00
2023-10-02T05:03:34.384Z,100.00
2023-10-02T05:06:01.884Z,100.00
2023-10-02T05:08:42.276Z,100.00
2023-10-02T05:11:25.013Z,100.00
2023-10-02T05:13:56.619Z,100.00
2023-10-02T05:16:31.413Z,100.00
2023-10-02T05:18:58.907Z,100.00
2023-10-02T05:21:41.283Z,100.00
2023-10-02T05:24:13.845Z,100.00
2023-10-02T05:26:43.364Z,100.00
2023-10-02T05:29:37.583Z,100.00
2023-10-02T05:32:21.353Z,100.00
2023-10-02T05:35:07.639Z,100.00
2023-10-02T05:37:43.506Z,100.00
2023-10-02T05:40:22.555Z,100.00
2023-10-02T05:43:11.115Z,100.00
2023-10-02T05:45:41.780Z,100.00
2023-10-02T05:48:13.458Z,100.00
2023-10-02T05:50:48.932Z,100.00
2023-10-02T05:53:17.127Z,100.00
2023-10-02T05:56:19.736Z,100.00
2023-10-02T05:58:50.630Z,100.00
2023-10-02T06:01:25.788Z,100.00
2023-10-02T06:04:01.726Z,100.00
2023-10-02T06:06:32.781Z,100.00
2023-10-02T06:09:04.542Z,100.00
2023-10-02T06:11:35.303Z,100.00
2023-10-02T06:14:15.268Z,100.00
2023-10-02T06:16:43.977Z,100.00
2023-10-02T06:19:15.722Z,100.00
2023-10-02T06:21:48.013Z,100.00
2023-10-02T06:24:16.501Z,100.00
2023-10-02T06:27:00.004Z,100.00
2023-10-02T06:29:36.869Z,100.00
2023-10-02T06:32:12.954Z,100.00
2023-10-02T06:34:41.669Z,100.00
2023-10-02T06:37:14.597Z,100.00
2023-10-02T06:39:44.360Z,100.00
2023-10-02T06:42:17.037Z,100.00
2023-10-02T06:44:54.579Z,100.00
2023-10-02T06:47:26.195Z,100.00
2023-10-02T06:49:53.589Z,100.00
2023-10-02T06:52:22.223Z,100.00
2023-10-02T06:54:50.953Z,100.00
2023-10-02T06:57:20.301Z,100.00
2023-10-02T06:59:55.183Z,100.00
2023-10-02T07:02:24.701Z,100.00
2023-10-02T07:04:54.565Z,100.00
2023-10-02T07:07:27.973Z,100.00
2023-10-02T07:09:56.889Z,100.00
2023-10-02T07:12:29.344Z,100.00
2023-10-02T07:15:12.508Z,100.00
2023-10-02T07:17:50.993Z,100.00
2023-10-02T07:20:22.068Z,100.00
2023-10-02T07:22:53.411Z,100.00
2023-10-02T07:25:26.099Z,100.00
2023-10-02T07:27:53.481Z,100.00
2023-10-02T07:30:28.706Z,100.00
2023-10-02T07:33:05.063Z,100.00
2023-10-02T07:35:34.282Z,100.00
2023-10-02T07:38:02.073Z,100.00
2023-10-02T07:40:49.984Z,100.00
2023-10-02T07:43:22.331Z,100.00
2023-10-02T07:46:03.566Z,99.38
2023-10-02T07:48:37.889Z,97.35
2023-10-02T07:51:08.266Z,94.32
2023-10-02T07:53:45.587Z,93.65
2023-10-02T07:56:15.656Z,86.26
2023-10-02T07:58:43.429Z,85.54
2023-10-02T08:01:14.176Z,86.59
2023-10-02T08:03:45.820Z,83.91
2023-10-02T08:06:23.700Z,84.48
2023-10-02T08:09:11.013Z,78.82
2023-10-02T08:11:40.938Z,75.40
2023-10-02T08:14:29.869Z,72.80
2023-10-02T08:17:09.865Z,73.26
2023-10-02T08:19:37.695Z,68.29
2023-10-02T08:22:06.634Z,64.25
2023-10-02T08:24:39.217Z,61.14
2023-10-02T08:27:06.378Z,58.53
2023-10-02T08:29:34.521Z,55.40
2023-10-02T08:32:02.954Z,53.97
2023-10-02T08:34:30.187Z,52.76
2023-10-02T08:37:06.765Z,54.23
2023-10-02T08:39:41.111Z,52.38
2023-10-02T08:42:12.457Z,50.36
2023-10-02T08:44:42.973Z,50.24
2023-10-02T08:47:14.499Z,50.35
2023-10-02T08:49:42.328Z,49.38
2023-10-02T08:52:12.727Z,47.55
2023-10-02T08:54:41.440Z,49.20
2023-10-02T08:57:13.663Z,48.07
2023-10-02T08:59:42.391Z,48.17
2023-10-02T09:02:18.225Z,49.09
2023-10-02T09:04:55.289Z,45.44
2023-10-02T09:07:46.773Z,46.53
2023-10-02T09:10:26.292Z,46.84
2023-10-02T09:13:15.825Z,46.04
2023-10-02T09:15:49.594Z,45.25
2023-10-02T09:18:36.483Z,43.33
2023-10-02T09:21:17.177Z,41.82
2023-10-02T09:23:54.588Z,44.24
2023-10-02T09:26:26.425Z,43.38
2023-10-02T09:29:02.158Z,42.81
2023-10-02T09:31:36.090Z,40.81
2023-10-02T09:34:53.936Z,41.80
2023-10-02T09:38:03.930Z,42.20
2023-10-02T09:40:04.616Z,42.03
2023-10-02T09:42:35.205Z,41.88
2023-10-02T09:45:10.940Z,41.40
2023-10-02T09:47:47.708Z,40.65
2023-10-02T09:50:28.151Z,41.23
2023-10-02T09:53:03.741Z,40.44
2023-10-02T09:56:09.745Z,39.81
2023-10-02T09:58:50.529Z,40.16
2023-10-02T10:01:29.257Z,37.80
2023-10-02T10:03:58.045Z,40.21
2023-10-02T10:06:38.385Z,39.74
2023-10-02T10:09:17.432Z,38.16
2023-10-02T10:12:12.714Z,36.42
2023-10-02T10:14:43.684Z,35.90
2023-10-02T10:17:23.111Z,34.99
2023-10-02T10:20:10.250Z,38.32
2023-10-02T10:22:41.617Z,37.30
2023-10-02T10:25:14.698Z,34.65
2023-10-02T10:27:41.662Z,37.23
2023-10-02T10:30:44.862Z,36.92
2023-10-02T10:33:35.183Z,37.68
2023-10-02T10:36:10.303Z,35.96
2023-10-02T10:38:43.295Z,35.38
2023-10-02T10:41:16.054Z,35.62
2023-10-02T10:43:53.296Z,32.88
2023-10-02T10:46:22.182Z,34.72
2023-10-02T10:49:25.334Z,33.05
2023-10-02T10:51:54.259Z,35.15
2023-10-02T10:54:45.565Z,33.68
2023-10-02T10:57:24.122Z,34.00
2023-10-02T11:00:28.274Z,35.79
2023-10-02T11:03:15.549Z,34.51
2023-10-02T11:05:43.483Z,33.22
2023-10-02T11:08:25.856Z,33.98
2023-10-02T11:11:13.275Z,34.71
2023-10-02T11:13:52.598Z,34.11
2023-10-02T11:16:23.920Z,32.95
2023-10-02T11:19:27.780Z,34.29
2023-10-02T11:22:16.583Z,31.05
2023-10-02T11:24:49.877Z,32.68
2023-10-02T11:27:17.876Z,34.42
2023-10-02T11:30:05.281Z,32.63
2023-10-02T11:33:00.095Z,32.13
2023-10-02T11:35:30.704Z,31.80
2023-10-02T11:37:59.170Z,32.08
2023-10-02T11:40:26.703Z,32.23
2023-10-02T11:42:54.157Z,31.05
2023-10-02T11:45:21.351Z,30.86
2023-10-02T11:47:50.216Z,32.56
2023-10-02T11:50:17.928Z,31.90
2023-10-02T11:52:45.541Z,30.76
2023-10-02T11:55:12.894Z,31.25
2023-10-02T11:57:41.096Z,31.26
2023-10-02T12:00:13.715Z,31.33
2023-10-02T12:02:41.098Z,31.03
2023-10-02T12:05:09.305Z,31.07
2023-10-02T12:07:36.621Z,31.11
2023-10-02T12:10:03.750Z,29.95
2023-10-02T12:12:31.882Z,29.84
2023-10-02T12:14:59.166Z,29.36
2023-10-02T12:17:27.101Z,29.04
2023-10-02T12:19:54.265Z,29.09
2023-10-02T12:22:21.157Z,29.09
2023-10-02T12:24:48.273Z,28.56
2023-10-02T12:27:17.985Z,28.77
2023-10-02T12:29:45.099Z,28.20
2023-10-02T12:32:12.677Z,27.39
2023-10-02T12:34:40.546Z,27.35
2023-10-02T12:37:07.653Z,26.83
2023-10-02T12:39:34.793Z,29.38
2023-10-02T12:42:02.336Z,28.86
2023-10-02T12:44:32.348Z,29.30
2023-10-02T12:46:59.894Z,29.61
2023-10-02T12:49:27.152Z,29.88
2023-10-02T12:51:56.033Z,30.27
2023-10-02T12:54:24.014Z,29.90
2023-10-02T12:56:52.236Z,29.72
2023-10-02T12:59:20.022Z,29.11
2023-10-02T13:01:47.285Z,28.98
2023-10-02T13:04:14.377Z,27.67
2023-10-02T13:06:41.385Z,28.39
2023-10-02T13:09:16.075Z,29.08
2023-10-02T13:11:46.117Z,29.62
2023-10-02T13:14:17.016Z,30.11
2023-10-02T13:16:47.337Z,29.99
2023-10-02T13:19:14.432Z,29.55
2023-10-02T13:21:42.571Z,28.52
2023-10-02T13:24:18.711Z,28.31
2023-10-02T13:26:46.014Z,28.78
2023-10-02T13:29:13.449Z,29.09
2023-10-02T13:31:41.089Z,28.29
2023-10-02T13:34:08.236Z,28.90
2023-10-02T13:36:35.653Z,28.23
2023-10-02T13:39:06.795Z,27.71
2023-10-02T13:41:36.441Z,28.13
2023-10-02T13:44:05.552Z,28.85
2023-10-02T13:46:39.810Z,28.17
2023-10-02T13:49:07.576Z,27.56
2023-10-02T13:51:35.011Z,28.79
2023-10-02T13:54:02.615Z,28.34
2023-10-02T13:56:34.562Z,28.78
2023-10-02T13:59:03.329Z,29.15
2023-10-02T14:01:34.609Z,29.15
2023-10-02T14:04:02.889Z,30.15
2023-10-02T14:06:30.605Z,31.24
2023-10-02T14:08:58.904Z,32.02
2023-10-02T14:11:28.034Z,32.78
2023-10-02T14:13:57.818Z,34.65
2023-10-02T14:16:26.630Z,34.54
2023-10-02T14:18:55.211Z,34.64
2023-10-02T14:21:23.564Z,36.69
2023-10-02T14:23:54.589Z,36.30
2023-10-02T14:26:24.081Z,37.57
2023-10-02T14:28:54.935Z,37.91
2023-10-02T14:31:33.633Z,38.54
2023-10-02T14:34:01.643Z,39.37
2023-10-02T14:36:30.772Z,39.69
2023-10-02T14:38:59.801Z,40.37
2023-10-02T14:41:28.700Z,41.56
2023-10-02T14:43:56.859Z,40.50
2023-10-02T14:46:24.659Z,40.73
2023-10-02T14:48:51.685Z,43.05
2023-10-02T14:51:19.876Z,43.31
2023-10-02T14:53:47.091Z,42.44
2023-10-02T14:56:14.402Z,42.55
2023-10-02T14:58:51.919Z,42.55
2023-10-02T15:01:20.577Z,43.72
2023-10-02T15:03:51.751Z,43.24
2023-10-02T15:06:18.968Z,43.43
2023-10-02T15:08:46.229Z,43.80
2023-10-02T15:11:15.786Z,43.38
2023-10-02T15:13:44.620Z,44.47
2023-10-02T15:16:19.023Z,44.73
2023-10-02T15:18:49.393Z,44.34
2023-10-02T15:21:18.308Z,45.82
2023-10-02T15:23:46.432Z,45.08
2023-10-02T15:26:13.452Z,45.24
2023-10-02T15:28:40.686Z,44.99
2023-10-02T15:31:08.924Z,45.88
2023-10-02T15:33:37.209Z,46.32
2023-10-02T15:36:04.610Z,46.27
2023-10-02T15:38:32.425Z,46.89
2023-10-02T15:41:02.988Z,47.06
2023-10-02T15:43:30.587Z,47.36
2023-10-02T15:45:59.931Z,47.94
2023-10-02T15:48:27.881Z,48.06
2023-10-02T15:50:55.342Z,48.67
2023-10-02T15:53:26.118Z,48.98
2023-10-02T15:55:53.684Z,49.38
2023-10-02T15:58:20.930Z,49.74
2023-10-02T16:00:50.749Z,51.28
2023-10-02T16:03:18.345Z,50.41
2023-10-02T16:05:47.963Z,52.00
2023-10-02T16:08:15.401Z,52.55
2023-10-02T16:10:42.381Z,52.48
2023-10-02T16:13:09.261Z,53.23
2023-10-02T16:15:36.796Z,55.11
2023-10-02T16:18:06.450Z,57.05
2023-10-02T16:20:33.882Z,57.64
2023-10-02T16:23:03.733Z,60.15
2023-10-02T16:25:32.308Z,61.42
2023-10-02T16:27:59.692Z,62.28
2023-10-02T16:30:27.849Z,60.44
2023-10-02T16:32:56.015Z,63.09
2023-10-02T16:35:30.205Z,66.19
2023-10-02T16:38:04.625Z,71.24
2023-10-02T16:40:34.478Z,74.97
2023-10-02T16:43:05.519Z,76.41
2023-10-02T16:45:34.187Z,79.36
2023-10-02T16:48:04.162Z,82.68
2023-10-02T16:50:31.838Z,86.23
2023-10-02T16:52:59.876Z,87.94
2023-10-02T16:55:31.827Z,89.68
2023-10-02T16:57:59.084Z,90.66
2023-10-02T17:00:28.376Z,91.75
2023-10-02T17:02:59.696Z,94.60
2023-10-02T17:05:27.245Z,94.66
2023-10-02T17:07:55.682Z,94.90
2023-10-02T17:10:23.935Z,96.93
2023-10-02T17:12:55.923Z,100.00
2023-10-02T17:15:23.330Z,100.00
2023-10-02T17:17:51.162Z,100.00
2023-10-02T17:20:23.482Z,100.00
2023-10-02T17:22:51.464Z,100.00
2023-10-02T17:25:28.008Z,100.00
2023-10-02T17:28:02.917Z,100.00
2023-10-02T17:30:34.126Z,100.00
2023-10-02T17:33:05.470Z,100.00
2023-10-02T17:35:35.859Z,100.00
2023-10-02T17:38:08.015Z,100.00
2023-10-02T17:40:37.512Z,100.00
2023-10-02T17:43:06.905Z,100.00
2023-10-02T17:45:39.648Z,100.00
2023-10-02T17:48:09.269Z,100.00
2023-10-02T17:50:38.806Z,100.00
2023-10-02T17:53:08.021Z,100.00
2023-10-02T17:55:39.333Z,100.00
2023-10-02T17:58:09.143Z,100.00
2023-10-02T18:00:38.963Z,100.00
2023-10-02T18:03:10.322Z,100.00
2023-10-02T18:05:41.118Z,100.00
2023-10-02T18:08:11.143Z,100.00
2023-10-02T18:10:47.721Z,100.00
2023-10-02T18:13:17.315Z,100.00
2023-10-02T18:15:49.270Z,100.00
2023-10-02T18:18:20.445Z,100.00
2023-10-02T18:20:53.142Z,100.00
2023-10-02T18:23:24.322Z,100.00
2023-10-02T18:25:56.494Z,100.00
2023-10-02T18:28:26.170Z,100.00
2023-10-02T18:30:58.832Z,100.00
2023-10-02T18:33:33.581Z,100.00
2023-10-02T18:36:06.469Z,100.00
2023-10-02T18:38:37.704Z,100.00
2023-10-02T18:41:13.879Z,100.00
2023-10-02T18:43:44.048Z,100.00
2023-10-02T18:46:14.094Z,100.00
2023-10-02T18:48:46.504Z,100.00
2023-10-02T18:51:22.926Z,100.00
2023-10-02T18:54:06.430Z,100.00
2023-10-02T18:56:37.409Z,100.00
2023-10-02T18:59:07.430Z,100.00
2023-10-02T19:01:36.962Z,100.00
2023-10-02T19:04:07.839Z,100.00
2023-10-02T19:06:36.542Z,100.00
2023-10-02T19:09:09.764Z,100.00
2023-10-02T19:11:39.756Z,100.00
2023-10-02T19:14:10.826Z,100.00
2023-10-02T19:16:42.101Z,100.00
2023-10-02T19:19:10.943Z,100.00
2023-10-02T19:21:39.259Z,100.00
2023-10-02T19:24:09.859Z,100.00
2023-10-02T19:26:38.950Z,100.00
2023-10-02T19:29:08.534Z,100.00
2023-10-02T19:31:37.982Z,100.00
2023-10-02T19:34:07.509Z,100.00
2023-10-02T19:36:36.702Z,100.00
2023-10-02T19:39:07.575Z,100.00
2023-10-02T19:41:36.098Z,100.00
2023-10-02T19:44:07.794Z,100.00
2023-10-02T19:46:38.028Z,100.00
2023-10-02T19:49:09.181Z,100.00
2023-10-02T19:51:37.266Z,100.00
2023-10-02T19:54:06.753Z,100.00
2023-10-02T19:56:35.592Z,100.00
2023-10-02T19:59:05.130Z,100.00
2023-10-02T20:01:32.881Z,100.00
2023-10-02T20:04:02.057Z,100.00
2023-10-02T20:06:30.464Z,100.00
2023-10-02T20:08:59.231Z,100.00
2023-10-02T20:11:27.620Z,100.00
2023-10-02T20:13:57.228Z,100.00
2023-10-02T20:16:25.039Z,100.00
2023-10-02T20:18:53.184Z,100.00
2023-10-02T20:21:21.211Z,100.00
2023-10-02T20:23:52.864Z,100.00
2023-10-02T20:26:21.556Z,100.00
2023-10-02T20:28:49.363Z,100.00
2023-10-02T20:31:16.589Z,100.00
2023-10-02T20:33:44.022Z,100.00
2023-10-02T20:36:13.137Z,100.00
2023-10-02T20:38:41.788Z,100.00
2023-10-02T20:41:09.856Z,100.00
2023-10-02T20:43:36.915Z,100.00
2023-10-02T20:46:04.082Z,100.00
2023-10-02T20:48:31.534Z,100.00
2023-10-02T20:51:01.906Z,100.00
2023-10-02T20:53:29.396Z,100.00
2023-10-02T20:56:00.815Z,100.00
2023-10-02T20:58:28.582Z,100.00
2023-10-02T21:00:55.852Z,100.00
2023-10-02T21:03:23.116Z,100.00
2023-10-02T21:05:51.185Z,100.00
2023-10-02T21:08:18.500Z,100.00
2023-10-02T21:10:45.638Z,100.00
2023-10-02T21:13:12.810Z,100.00
2023-10-02T21:15:40.009Z,100.00
2023-10-02T21:18:07.699Z,100.00
2023-10-02T21:20:34.889Z,100.00
2023-10-02T21:23:02.043Z,100.00
2023-10-02T21:25:29.196Z,100.00
2023-10-02T21:27:56.600Z,100.00
2023-10-02T21:30:23.853Z,100.00
2023-10-02T21:32:52.324Z,100.00
2023-10-02T21:35:19.589Z,100.00
2023-10-02T21:37:47.489Z,100.00
2023-10-02T21:40:15.093Z,100.00
2023-10-02T21:42:43.032Z,100.00
2023-10-02T21:45:13.612Z,100.00
2023-10-02T21:47:40.904Z,100.00
2023-10-02T21:50:08.197Z,100.00
2023-10-02T21:52:40.562Z,100.00
2023-10-02T21:55:10.798Z,100.00
2023-10-02T21:57:38.023Z,100.00
2023-10-02T22:00:09.141Z,100.00
2023-10-02T22:02:36.348Z,100.00
2023-10-02T22:05:04.757Z,100.00
2023-10-02T22:07:32.152Z,100.00
2023-10-02T22:09:59.254Z,100.00
2023-10-02T22:12:26.682Z,100.00
2023-10-02T22:14:53.856Z,100.00
2023-10-02T22:17:22.078Z,100.00
2023-10-02T22:19:51.391Z,100.00
2023-10-02T22:22:18.503Z,100.00
2023-10-02T22:24:45.669Z,100.00
2023-10-02T22:27:15.210Z,100.00
2023-10-02T22:29:42.467Z,100.00
2023-10-02T22:32:10.118Z,100.00
2023-10-02T22:34:42.091Z,100.00
2023-10-02T22:37:14.630Z,100.00
2023-10-02T22:39:42.847Z,100.00
2023-10-02T22:42:12.557Z,100.00
2023-10-02T22:44:40.086Z,100.00
2023-10-02T22:47:07.593Z,100.00
2023-10-02T22:49:36.727Z,100.00
2023-10-02T22:52:04.733Z,100.00
2023-10-02T22:54:31.885Z,100.00
2023-10-02T22:57:04.978Z,100.00
2023-10-02T22:59:32.316Z,100.00
2023-10-02T23:02:01.111Z,100.00
2023-10-02T23:04:28.784Z,100.00
2023-10-02T23:06:56.092Z,100.00
2023-10-02T23:09:25.698Z,100.00
2023-10-02T23:11:53.532Z,100.00
2023-10-02T23:14:24.140Z,100.00
2023-10-02T23:16:51.507Z,100.00
2023-10-02T23:19:21.188Z,100.00
2023-10-02T23:21:48.371Z,100.00
2023-10-02T23:24:15.264Z,100.00
2023-10-02T23:26:42.405Z,100.00
2023-10-02T23:29:09.357Z,100.00
2023-10-02T23:31:36.747Z,100.00
2023-10-02T23:34:07.346Z,100.00
2023-10-02T23:36:35.253Z,100.00
2023-10-02T23:39:03.448Z,100.00
2023-10-02T23:41:33.263Z,100.00
2023-10-02T23:44:00.762Z,100.00
2023-10-02T23:46:27.629Z,100.00
2023-10-02T23:48:56.676Z,100.00
2023-10-02T23:51:29.223Z,100.00
2023-10-02T23:53:58.553Z,100.00
2023-10-02T23:56:26.670Z,100.00
2023-10-02T23:58:53.869Z,100.00
